sensor_id;sensor_type;location;lat;lon;timestamp;P1;durP1;ratioP1;P2;durP2;ratioP2
25439;SDS011;13365;52.208;5.488;2023-09-30T00:01:36;5.93;;;1.92;;
25439;SDS011;13365;52.208;5.488;2023-09-30T00:04:03;9.18;;;2.05;;
25439;SDS011;13365;52.208;5.488;2023-09-30T00:06:30;3.83;;;1.35;;
25439;SDS011;13365;52.208;5.488;2023-09-30T00:08:55;4.68;;;1.92;;
25439;SDS011;13365;52.208;5.488;2023-09-30T00:11:21;4.82;;;1.73;;
25439;SDS011;13365;52.208;5.488;2023-09-30T00:13:46;6.28;;;2.10;;
25439;SDS011;13365;52.208;5.488;2023-09-30T00:16:14;4.25;;;1.55;;
25439;SDS011;13365;52.208;5.488;2023-09-30T00:18:42;7.57;;;2.22;;
25439;SDS011;13365;52.208;5.488;2023-09-30T00:21:07;5.97;;;1.80;;
25439;SDS011;13365;52.208;5.488;2023-09-30T00:23:33;4.43;;;1.77;;
25439;SDS011;13365;52.208;5.488;2023-09-30T00:25:58;3.55;;;1.58;;
25439;SDS011;13365;52.208;5.488;2023-09-30T00:28:25;4.68;;;1.58;;
25439;SDS011;13365;52.208;5.488;2023-09-30T00:30:51;4.88;;;1.77;;
25439;SDS011;13365;52.208;5.488;2023-09-30T00:33:16;6.78;;;2.33;;
25439;SDS011;13365;52.208;5.488;2023-09-30T00:35:42;2.70;;;1.60;;
25439;SDS011;13365;52.208;5.488;2023-09-30T00:38:07;4.07;;;1.67;;
25439;SDS011;13365;52.208;5.488;2023-09-30T00:40:34;3.72;;;1.48;;
25439;SDS011;13365;52.208;5.488;2023-09-30T00:43:00;4.72;;;1.45;;
25439;SDS011;13365;52.208;5.488;2023-09-30T00:45:26;6.75;;;2.10;;
25439;SDS011;13365;52.208;5.488;2023-09-30T00:47:52;8.07;;;2.20;;
25439;SDS011;13365;52.208;5.488;2023-09-30T00:50:19;3.20;;;1.80;;
25439;SDS011;13365;52.208;5.488;2023-09-30T00:52:45;6.35;;;2.13;;
25439;SDS011;13365;52.208;5.488;2023-09-30T00:55:13;3.85;;;1.85;;
25439;SDS011;13365;52.208;5.488;2023-09-30T00:57:40;6.18;;;2.10;;
25439;SDS011;13365;52.208;5.488;2023-09-30T01:00:06;3.63;;;1.80;;
25439;SDS011;13365;52.208;5.488;2023-09-30T01:02:36;5.20;;;2.03;;
25439;SDS011;13365;52.208;5.488;2023-09-30T01:05:06;4.18;;;1.40;;
25439;SDS011;13365;52.208;5.488;2023-09-30T01:07:33;7.13;;;2.15;;
25439;SDS011;13365;52.208;5.488;2023-09-30T01:09:59;4.60;;;1.90;;
25439;SDS011;13365;52.208;5.488;2023-09-30T01:12:24;3.92;;;1.98;;
25439;SDS011;13365;52.208;5.488;2023-09-30T01:14:50;3.97;;;2.03;;
25439;SDS011;13365;52.208;5.488;2023-09-30T01:17:15;3.72;;;1.83;;
25439;SDS011;13365;52.208;5.488;2023-09-30T01:19:41;6.47;;;2.42;;
25439;SDS011;13365;52.208;5.488;2023-09-30T01:22:07;3.90;;;1.90;;
25439;SDS011;13365;52.208;5.488;2023-09-30T01:24:38;2.30;;;1.50;;
25439;SDS011;13365;52.208;5.488;2023-09-30T01:27:05;5.60;;;1.60;;
25439;SDS011;13365;52.208;5.488;2023-09-30T01:29:31;4.60;;;1.63;;
25439;SDS011;13365;52.208;5.488;2023-09-30T01:31:57;4.05;;;1.88;;
25439;SDS011;13365;52.208;5.488;2023-09-30T01:34:22;3.63;;;1.67;;
25439;SDS011;13365;52.208;5.488;2023-09-30T01:36:48;2.33;;;1.50;;
25439;SDS011;13365;52.208;5.488;2023-09-30T01:39:13;2.67;;;1.60;;
25439;SDS011;13365;52.208;5.488;2023-09-30T01:41:40;7.47;;;1.70;;
25439;SDS011;13365;52.208;5.488;2023-09-30T01:44:06;3.42;;;1.58;;
25439;SDS011;13365;52.208;5.488;2023-09-30T01:46:32;4.03;;;1.90;;
25439;SDS011;13365;52.208;5.488;2023-09-30T01:48:57;4.35;;;1.65;;
25439;SDS011;13365;52.208;5.488;2023-09-30T01:51:23;3.63;;;1.52;;
25439;SDS011;13365;52.208;5.488;2023-09-30T01:53:48;2.20;;;1.58;;
25439;SDS011;13365;52.208;5.488;2023-09-30T01:56:14;4.10;;;2.05;;
25439;SDS011;13365;52.208;5.488;2023-09-30T01:58:40;3.80;;;2.03;;
25439;SDS011;13365;52.208;5.488;2023-09-30T02:01:05;2.90;;;1.48;;
25439;SDS011;13365;52.208;5.488;2023-09-30T02:03:31;5.85;;;2.47;;
25439;SDS011;13365;52.208;5.488;2023-09-30T02:05:57;4.85;;;2.35;;
25439;SDS011;13365;52.208;5.488;2023-09-30T02:08:23;4.35;;;2.20;;
25439;SDS011;13365;52.208;5.488;2023-09-30T02:10:48;2.88;;;1.58;;
25439;SDS011;13365;52.208;5.488;2023-09-30T02:13:14;3.30;;;1.50;;
25439;SDS011;13365;52.208;5.488;2023-09-30T02:15:40;7.13;;;2.72;;
25439;SDS011;13365;52.208;5.488;2023-09-30T02:18:08;5.65;;;1.80;;
25439;SDS011;13365;52.208;5.488;2023-09-30T02:20:34;2.15;;;1.05;;
25439;SDS011;13365;52.208;5.488;2023-09-30T02:23:04;2.50;;;1.40;;
25439;SDS011;13365;52.208;5.488;2023-09-30T02:25:30;2.97;;;1.40;;
25439;SDS011;13365;52.208;5.488;2023-09-30T02:27:57;3.30;;;1.70;;
25439;SDS011;13365;52.208;5.488;2023-09-30T02:30:22;7.80;;;3.03;;
25439;SDS011;13365;52.208;5.488;2023-09-30T02:32:49;4.25;;;2.10;;
25439;SDS011;13365;52.208;5.488;2023-09-30T02:35:14;7.55;;;3.28;;
25439;SDS011;13365;52.208;5.488;2023-09-30T02:37:40;7.07;;;2.83;;
25439;SDS011;13365;52.208;5.488;2023-09-30T02:40:06;7.00;;;2.60;;
25439;SDS011;13365;52.208;5.488;2023-09-30T02:42:35;6.13;;;2.90;;
25439;SDS011;13365;52.208;5.488;2023-09-30T02:45:04;7.75;;;2.60;;
25439;SDS011;13365;52.208;5.488;2023-09-30T02:47:30;5.80;;;2.15;;
25439;SDS011;13365;52.208;5.488;2023-09-30T02:49:57;5.28;;;3.40;;
25439;SDS011;13365;52.208;5.488;2023-09-30T02:52:23;6.68;;;2.83;;
25439;SDS011;13365;52.208;5.488;2023-09-30T02:54:49;4.47;;;2.78;;
25439;SDS011;13365;52.208;5.488;2023-09-30T02:57:15;5.78;;;2.67;;
25439;SDS011;13365;52.208;5.488;2023-09-30T02:59:40;6.50;;;3.17;;
25439;SDS011;13365;52.208;5.488;2023-09-30T03:02:07;5.22;;;3.33;;
25439;SDS011;13365;52.208;5.488;2023-09-30T03:04:32;7.28;;;3.30;;
25439;SDS011;13365;52.208;5.488;2023-09-30T03:06:58;6.00;;;2.85;;
25439;SDS011;13365;52.208;5.488;2023-09-30T03:09:23;8.98;;;3.47;;
25439;SDS011;13365;52.208;5.488;2023-09-30T03:11:49;5.88;;;2.55;;
25439;SDS011;13365;52.208;5.488;2023-09-30T03:14:16;6.32;;;3.13;;
25439;SDS011;13365;52.208;5.488;2023-09-30T03:16:41;7.70;;;3.40;;
25439;SDS011;13365;52.208;5.488;2023-09-30T03:19:09;6.70;;;2.95;;
25439;SDS011;13365;52.208;5.488;2023-09-30T03:21:36;4.57;;;2.35;;
25439;SDS011;13365;52.208;5.488;2023-09-30T03:24:02;5.55;;;2.83;;
25439;SDS011;13365;52.208;5.488;2023-09-30T03:26:29;4.88;;;2.78;;
25439;SDS011;13365;52.208;5.488;2023-09-30T03:28:55;6.85;;;2.70;;
25439;SDS011;13365;52.208;5.488;2023-09-30T03:31:20;10.63;;;2.97;;
25439;SDS011;13365;52.208;5.488;2023-09-30T03:33:47;6.32;;;3.22;;
25439;SDS011;13365;52.208;5.488;2023-09-30T03:36:14;6.30;;;3.40;;
25439;SDS011;13365;52.208;5.488;2023-09-30T03:38:40;5.05;;;3.00;;
25439;SDS011;13365;52.208;5.488;2023-09-30T03:41:07;7.78;;;3.17;;
25439;SDS011;13365;52.208;5.488;2023-09-30T03:43:34;4.82;;;2.55;;
25439;SDS011;13365;52.208;5.488;2023-09-30T03:46:05;5.65;;;3.33;;
25439;SDS011;13365;52.208;5.488;2023-09-30T03:48:31;6.50;;;3.20;;
25439;SDS011;13365;52.208;5.488;2023-09-30T03:50:57;6.20;;;3.65;;
25439;SDS011;13365;52.208;5.488;2023-09-30T03:53:22;5.15;;;3.20;;
25439;SDS011;13365;52.208;5.488;2023-09-30T03:55:51;5.93;;;3.13;;
25439;SDS011;13365;52.208;5.488;2023-09-30T03:58:16;4.72;;;2.53;;
25439;SDS011;13365;52.208;5.488;2023-09-30T04:00:44;10.88;;;3.95;;
25439;SDS011;13365;52.208;5.488;2023-09-30T04:03:09;6.32;;;3.28;;
25439;SDS011;13365;52.208;5.488;2023-09-30T04:05:35;7.22;;;3.72;;
25439;SDS011;13365;52.208;5.488;2023-09-30T04:08:02;7.88;;;3.00;;
25439;SDS011;13365;52.208;5.488;2023-09-30T04:10:28;5.50;;;2.67;;
25439;SDS011;13365;52.208;5.488;2023-09-30T04:12:55;6.68;;;3.20;;
25439;SDS011;13365;52.208;5.488;2023-09-30T04:15:20;5.20;;;2.97;;
25439;SDS011;13365;52.208;5.488;2023-09-30T04:17:48;7.40;;;3.58;;
25439;SDS011;13365;52.208;5.488;2023-09-30T04:20:13;7.38;;;3.30;;
25439;SDS011;13365;52.208;5.488;2023-09-30T04:22:46;7.35;;;3.63;;
25439;SDS011;13365;52.208;5.488;2023-09-30T04:25:13;6.95;;;3.42;;
25439;SDS011;13365;52.208;5.488;2023-09-30T04:27:43;9.20;;;3.78;;
25439;SDS011;13365;52.208;5.488;2023-09-30T04:30:10;9.93;;;3.88;;
25439;SDS011;13365;52.208;5.488;2023-09-30T04:32:39;6.15;;;4.03;;
25439;SDS011;13365;52.208;5.488;2023-09-30T04:35:04;6.38;;;3.95;;
25439;SDS011;13365;52.208;5.488;2023-09-30T04:37:31;7.32;;;4.13;;
25439;SDS011;13365;52.208;5.488;2023-09-30T04:39:56;8.27;;;4.32;;
25439;SDS011;13365;52.208;5.488;2023-09-30T04:42:23;6.30;;;3.83;;
25439;SDS011;13365;52.208;5.488;2023-09-30T04:44:50;8.90;;;4.50;;
25439;SDS011;13365;52.208;5.488;2023-09-30T04:47:16;7.90;;;4.55;;
25439;SDS011;13365;52.208;5.488;2023-09-30T04:49:43;8.88;;;4.05;;
25439;SDS011;13365;52.208;5.488;2023-09-30T04:52:09;7.47;;;4.40;;
25439;SDS011;13365;52.208;5.488;2023-09-30T04:54:35;8.50;;;3.75;;
25439;SDS011;13365;52.208;5.488;2023-09-30T04:57:00;9.00;;;4.50;;
25439;SDS011;13365;52.208;5.488;2023-09-30T04:59:28;11.52;;;5.03;;
25439;SDS011;13365;52.208;5.488;2023-09-30T05:01:54;10.25;;;4.78;;
25439;SDS011;13365;52.208;5.488;2023-09-30T05:04:21;9.48;;;4.57;;
25439;SDS011;13365;52.208;5.488;2023-09-30T05:06:48;7.40;;;4.00;;
25439;SDS011;13365;52.208;5.488;2023-09-30T05:09:14;9.63;;;4.82;;
25439;SDS011;13365;52.208;5.488;2023-09-30T05:11:40;8.32;;;4.82;;
25439;SDS011;13365;52.208;5.488;2023-09-30T05:14:05;7.70;;;4.22;;
25439;SDS011;13365;52.208;5.488;2023-09-30T05:16:31;8.07;;;4.78;;
25439;SDS011;13365;52.208;5.488;2023-09-30T05:18:56;11.80;;;4.30;;
25439;SDS011;13365;52.208;5.488;2023-09-30T05:21:22;10.63;;;5.10;;
25439;SDS011;13365;52.208;5.488;2023-09-30T05:23:48;9.10;;;4.85;;
25439;SDS011;13365;52.208;5.488;2023-09-30T05:26:14;8.02;;;4.25;;
25439;SDS011;13365;52.208;5.488;2023-09-30T05:28:39;9.95;;;4.65;;
25439;SDS011;13365;52.208;5.488;2023-09-30T05:31:06;9.60;;;4.40;;
25439;SDS011;13365;52.208;5.488;2023-09-30T05:33:32;9.32;;;4.93;;
25439;SDS011;13365;52.208;5.488;2023-09-30T05:35:57;7.63;;;4.65;;
25439;SDS011;13365;52.208;5.488;2023-09-30T05:38:24;8.50;;;4.82;;
25439;SDS011;13365;52.208;5.488;2023-09-30T05:40:51;8.48;;;5.22;;
25439;SDS011;13365;52.208;5.488;2023-09-30T05:43:16;8.10;;;5.25;;
25439;SDS011;13365;52.208;5.488;2023-09-30T05:45:42;9.80;;;4.55;;
25439;SDS011;13365;52.208;5.488;2023-09-30T05:48:14;8.80;;;5.05;;
25439;SDS011;13365;52.208;5.488;2023-09-30T05:50:41;8.32;;;4.43;;
25439;SDS011;13365;52.208;5.488;2023-09-30T05:53:07;7.93;;;4.40;;
25439;SDS011;13365;52.208;5.488;2023-09-30T05:55:35;8.30;;;5.45;;
25439;SDS011;13365;52.208;5.488;2023-09-30T05:58:02;9.45;;;6.18;;
25439;SDS011;13365;52.208;5.488;2023-09-30T06:00:27;8.50;;;5.18;;
25439;SDS011;13365;52.208;5.488;2023-09-30T06:02:56;14.50;;;5.65;;
25439;SDS011;13365;52.208;5.488;2023-09-30T06:05:22;7.32;;;5.18;;
25439;SDS011;13365;52.208;5.488;2023-09-30T06:07:48;13.95;;;5.50;;
25439;SDS011;13365;52.208;5.488;2023-09-30T06:10:14;8.38;;;4.95;;
25439;SDS011;13365;52.208;5.488;2023-09-30T06:12:49;10.10;;;5.97;;
25439;SDS011;13365;52.208;5.488;2023-09-30T06:15:23;9.63;;;5.68;;
25439;SDS011;13365;52.208;5.488;2023-09-30T06:17:53;15.73;;;6.45;;
25439;SDS011;13365;52.208;5.488;2023-09-30T06:20:20;9.55;;;6.20;;
25439;SDS011;13365;52.208;5.488;2023-09-30T06:22:47;9.82;;;5.30;;
25439;SDS011;13365;52.208;5.488;2023-09-30T06:25:16;10.02;;;5.72;;
25439;SDS011;13365;52.208;5.488;2023-09-30T06:27:43;8.95;;;4.90;;
25439;SDS011;13365;52.208;5.488;2023-09-30T06:30:12;13.40;;;7.00;;
25439;SDS011;13365;52.208;5.488;2023-09-30T06:32:41;11.95;;;6.10;;
25439;SDS011;13365;52.208;5.488;2023-09-30T06:35:08;11.18;;;6.28;;
25439;SDS011;13365;52.208;5.488;2023-09-30T06:37:36;9.10;;;5.10;;
25439;SDS011;13365;52.208;5.488;2023-09-30T06:40:03;12.23;;;6.40;;
25439;SDS011;13365;52.208;5.488;2023-09-30T06:42:30;9.70;;;6.13;;
25439;SDS011;13365;52.208;5.488;2023-09-30T06:44:56;13.65;;;7.32;;
25439;SDS011;13365;52.208;5.488;2023-09-30T06:47:22;12.70;;;6.40;;
25439;SDS011;13365;52.208;5.488;2023-09-30T06:49:48;11.95;;;6.97;;
25439;SDS011;13365;52.208;5.488;2023-09-30T06:52:14;11.43;;;7.40;;
25439;SDS011;13365;52.208;5.488;2023-09-30T06:54:40;12.32;;;7.10;;
25439;SDS011;13365;52.208;5.488;2023-09-30T06:57:05;10.73;;;6.32;;
25439;SDS011;13365;52.208;5.488;2023-09-30T06:59:34;16.48;;;7.05;;
25439;SDS011;13365;52.208;5.488;2023-09-30T07:01:59;12.77;;;7.38;;
25439;SDS011;13365;52.208;5.488;2023-09-30T07:04:25;14.95;;;6.95;;
25439;SDS011;13365;52.208;5.488;2023-09-30T07:06:52;13.23;;;7.85;;
25439;SDS011;13365;52.208;5.488;2023-09-30T07:09:18;9.95;;;6.43;;
25439;SDS011;13365;52.208;5.488;2023-09-30T07:11:44;12.75;;;6.95;;
25439;SDS011;13365;52.208;5.488;2023-09-30T07:14:10;10.10;;;7.13;;
25439;SDS011;13365;52.208;5.488;2023-09-30T07:16:36;13.23;;;8.18;;
25439;SDS011;13365;52.208;5.488;2023-09-30T07:19:01;9.25;;;5.93;;
25439;SDS011;13365;52.208;5.488;2023-09-30T07:21:27;18.05;;;8.25;;
25439;SDS011;13365;52.208;5.488;2023-09-30T07:23:53;13.15;;;7.10;;
25439;SDS011;13365;52.208;5.488;2023-09-30T07:26:22;12.35;;;7.65;;
25439;SDS011;13365;52.208;5.488;2023-09-30T07:28:49;13.80;;;7.43;;
25439;SDS011;13365;52.208;5.488;2023-09-30T07:31:14;10.85;;;6.82;;
25439;SDS011;13365;52.208;5.488;2023-09-30T07:33:40;14.27;;;7.68;;
25439;SDS011;13365;52.208;5.488;2023-09-30T07:36:06;13.35;;;8.43;;
25439;SDS011;13365;52.208;5.488;2023-09-30T07:38:31;14.77;;;8.23;;
25439;SDS011;13365;52.208;5.488;2023-09-30T07:40:57;15.02;;;7.50;;
25439;SDS011;13365;52.208;5.488;2023-09-30T07:43:22;12.38;;;8.43;;
25439;SDS011;13365;52.208;5.488;2023-09-30T07:45:48;11.43;;;7.43;;
25439;SDS011;13365;52.208;5.488;2023-09-30T07:48:13;12.35;;;7.65;;
25439;SDS011;13365;52.208;5.488;2023-09-30T07:50:39;13.70;;;7.35;;
25439;SDS011;13365;52.208;5.488;2023-09-30T07:53:05;14.13;;;7.15;;
25439;SDS011;13365;52.208;5.488;2023-09-30T07:55:31;15.93;;;7.90;;
25439;SDS011;13365;52.208;5.488;2023-09-30T07:57:56;14.05;;;8.18;;
25439;SDS011;13365;52.208;5.488;2023-09-30T08:00:24;12.88;;;7.07;;
25439;SDS011;13365;52.208;5.488;2023-09-30T08:02:50;12.35;;;6.85;;
25439;SDS011;13365;52.208;5.488;2023-09-30T08:05:16;12.82;;;6.97;;
25439;SDS011;13365;52.208;5.488;2023-09-30T08:07:42;12.38;;;7.93;;
25439;SDS011;13365;52.208;5.488;2023-09-30T08:10:07;13.75;;;7.22;;
25439;SDS011;13365;52.208;5.488;2023-09-30T08:12:39;11.82;;;7.45;;
25439;SDS011;13365;52.208;5.488;2023-09-30T08:15:06;16.40;;;6.97;;
25439;SDS011;13365;52.208;5.488;2023-09-30T08:17:32;14.32;;;7.15;;
25439;SDS011;13365;52.208;5.488;2023-09-30T08:19:58;13.10;;;6.45;;
25439;SDS011;13365;52.208;5.488;2023-09-30T08:22:24;12.07;;;6.20;;
25439;SDS011;13365;52.208;5.488;2023-09-30T08:24:52;10.50;;;6.93;;
25439;SDS011;13365;52.208;5.488;2023-09-30T08:27:19;10.18;;;6.47;;
25439;SDS011;13365;52.208;5.488;2023-09-30T08:29:45;10.60;;;5.55;;
25439;SDS011;13365;52.208;5.488;2023-09-30T08:32:11;15.73;;;7.15;;
25439;SDS011;13365;52.208;5.488;2023-09-30T08:34:36;10.77;;;6.43;;
25439;SDS011;13365;52.208;5.488;2023-09-30T08:37:02;14.80;;;6.78;;
25439;SDS011;13365;52.208;5.488;2023-09-30T08:39:27;9.40;;;5.32;;
25439;SDS011;13365;52.208;5.488;2023-09-30T08:41:54;14.68;;;6.35;;
25439;SDS011;13365;52.208;5.488;2023-09-30T08:44:21;10.93;;;5.57;;
25439;SDS011;13365;52.208;5.488;2023-09-30T08:46:46;10.68;;;5.53;;
25439;SDS011;13365;52.208;5.488;2023-09-30T08:49:13;10.73;;;4.80;;
25439;SDS011;13365;52.208;5.488;2023-09-30T08:51:40;9.30;;;5.28;;
25439;SDS011;13365;52.208;5.488;2023-09-30T08:54:05;11.15;;;5.45;;
25439;SDS011;13365;52.208;5.488;2023-09-30T08:56:32;16.15;;;4.95;;
25439;SDS011;13365;52.208;5.488;2023-09-30T08:59:01;8.15;;;4.40;;
25439;SDS011;13365;52.208;5.488;2023-09-30T09:01:28;9.30;;;5.15;;
25439;SDS011;13365;52.208;5.488;2023-09-30T09:03:57;9.70;;;4.40;;
25439;SDS011;13365;52.208;5.488;2023-09-30T09:06:24;6.72;;;4.25;;
25439;SDS011;13365;52.208;5.488;2023-09-30T09:08:50;9.40;;;4.63;;
25439;SDS011;13365;52.208;5.488;2023-09-30T09:11:16;10.32;;;4.40;;
25439;SDS011;13365;52.208;5.488;2023-09-30T09:13:46;11.23;;;4.70;;
25439;SDS011;13365;52.208;5.488;2023-09-30T09:16:20;10.73;;;4.85;;
25439;SDS011;13365;52.208;5.488;2023-09-30T09:18:47;9.20;;;4.35;;
25439;SDS011;13365;52.208;5.488;2023-09-30T09:21:17;12.02;;;4.72;;
25439;SDS011;13365;52.208;5.488;2023-09-30T09:23:47;10.27;;;4.38;;
25439;SDS011;13365;52.208;5.488;2023-09-30T09:28:49;7.78;;;3.55;;
25439;SDS011;13365;52.208;5.488;2023-09-30T09:31:34;6.90;;;3.20;;
25439;SDS011;13365;52.208;5.488;2023-09-30T09:34:04;6.78;;;3.05;;
25439;SDS011;13365;52.208;5.488;2023-09-30T09:36:42;4.65;;;2.58;;
25439;SDS011;13365;52.208;5.488;2023-09-30T09:39:09;8.77;;;3.45;;
25439;SDS011;13365;52.208;5.488;2023-09-30T09:41:50;7.80;;;3.15;;
25439;SDS011;13365;52.208;5.488;2023-09-30T09:44:17;7.70;;;2.88;;
25439;SDS011;13365;52.208;5.488;2023-09-30T09:46:47;5.93;;;2.88;;
25439;SDS011;13365;52.208;5.488;2023-09-30T09:49:14;5.10;;;2.70;;
25439;SDS011;13365;52.208;5.488;2023-09-30T09:51:42;8.38;;;2.72;;
25439;SDS011;13365;52.208;5.488;2023-09-30T09:54:11;13.52;;;2.60;;
25439;SDS011;13365;52.208;5.488;2023-09-30T09:56:37;11.30;;;3.92;;
25439;SDS011;13365;52.208;5.488;2023-09-30T09:59:03;8.48;;;3.55;;
25439;SDS011;13365;52.208;5.488;2023-09-30T10:01:30;7.18;;;2.85;;
25439;SDS011;13365;52.208;5.488;2023-09-30T10:03:56;7.55;;;3.03;;
25439;SDS011;13365;52.208;5.488;2023-09-30T10:06:21;7.90;;;3.22;;
25439;SDS011;13365;52.208;5.488;2023-09-30T10:08:48;8.40;;;3.08;;
25439;SDS011;13365;52.208;5.488;2023-09-30T10:11:17;6.90;;;2.88;;
25439;SDS011;13365;52.208;5.488;2023-09-30T10:13:50;4.35;;;2.25;;
25439;SDS011;13365;52.208;5.488;2023-09-30T10:21:36;6.95;;;1.88;;
25439;SDS011;13365;52.208;5.488;2023-09-30T10:29:47;4.97;;;1.30;;
25439;SDS011;13365;52.208;5.488;2023-09-30T10:32:13;4.47;;;1.48;;
25439;SDS011;13365;52.208;5.488;2023-09-30T10:34:39;3.00;;;1.30;;
25439;SDS011;13365;52.208;5.488;2023-09-30T10:37:22;7.68;;;2.00;;
25439;SDS011;13365;52.208;5.488;2023-09-30T10:39:53;6.68;;;1.77;;
25439;SDS011;13365;52.208;5.488;2023-09-30T10:51:13;7.75;;;1.60;;
25439;SDS011;13365;52.208;5.488;2023-09-30T10:53:52;4.47;;;1.38;;
25439;SDS011;13365;52.208;5.488;2023-09-30T10:56:22;11.98;;;1.63;;
25439;SDS011;13365;52.208;5.488;2023-09-30T10:58:49;3.75;;;1.27;;
25439;SDS011;13365;52.208;5.488;2023-09-30T11:01:16;4.45;;;1.25;;
25439;SDS011;13365;52.208;5.488;2023-09-30T11:03:44;5.70;;;1.70;;
25439;SDS011;13365;52.208;5.488;2023-09-30T11:06:11;5.68;;;1.30;;
25439;SDS011;13365;52.208;5.488;2023-09-30T11:08:55;5.82;;;1.33;;
25439;SDS011;13365;52.208;5.488;2023-09-30T11:11:36;4.50;;;1.48;;
25439;SDS011;13365;52.208;5.488;2023-09-30T11:14:29;4.50;;;1.25;;
25439;SDS011;13365;52.208;5.488;2023-09-30T11:17:05;3.10;;;1.42;;
25439;SDS011;13365;52.208;5.488;2023-09-30T11:19:45;6.22;;;1.40;;
25439;SDS011;13365;52.208;5.488;2023-09-30T11:22:15;2.40;;;1.23;;
25439;SDS011;13365;52.208;5.488;2023-09-30T11:24:40;4.20;;;1.42;;
25439;SDS011;13365;52.208;5.488;2023-09-30T11:27:06;3.95;;;1.30;;
25439;SDS011;13365;52.208;5.488;2023-09-30T11:29:32;6.32;;;1.45;;
25439;SDS011;13365;52.208;5.488;2023-09-30T11:31:58;6.43;;;2.03;;
25439;SDS011;13365;52.208;5.488;2023-09-30T11:34:33;3.35;;;1.10;;
25439;SDS011;13365;52.208;5.488;2023-09-30T11:37:00;3.72;;;1.20;;
25439;SDS011;13365;52.208;5.488;2023-09-30T11:39:27;4.40;;;1.30;;
25439;SDS011;13365;52.208;5.488;2023-09-30T11:41:54;9.85;;;1.42;;
25439;SDS011;13365;52.208;5.488;2023-09-30T11:44:21;5.53;;;1.13;;
25439;SDS011;13365;52.208;5.488;2023-09-30T11:46:53;3.20;;;1.00;;
25439;SDS011;13365;52.208;5.488;2023-09-30T11:49:27;7.03;;;1.00;;
25439;SDS011;13365;52.208;5.488;2023-09-30T11:52:00;14.02;;;1.13;;
25439;SDS011;13365;52.208;5.488;2023-09-30T11:54:32;3.92;;;1.00;;
25439;SDS011;13365;52.208;5.488;2023-09-30T11:57:00;4.60;;;1.33;;
25439;SDS011;13365;52.208;5.488;2023-09-30T11:59:27;2.22;;;0.70;;
25439;SDS011;13365;52.208;5.488;2023-09-30T12:01:52;3.35;;;0.88;;
25439;SDS011;13365;52.208;5.488;2023-09-30T12:04:18;2.40;;;0.90;;
25439;SDS011;13365;52.208;5.488;2023-09-30T12:06:44;4.20;;;1.15;;
25439;SDS011;13365;52.208;5.488;2023-09-30T12:09:12;4.30;;;0.90;;
25439;SDS011;13365;52.208;5.488;2023-09-30T12:11:40;4.75;;;1.13;;
25439;SDS011;13365;52.208;5.488;2023-09-30T12:14:12;10.40;;;1.50;;
25439;SDS011;13365;52.208;5.488;2023-09-30T12:16:37;2.10;;;1.13;;
25439;SDS011;13365;52.208;5.488;2023-09-30T12:19:03;4.20;;;1.30;;
25439;SDS011;13365;52.208;5.488;2023-09-30T12:21:31;5.85;;;1.30;;
25439;SDS011;13365;52.208;5.488;2023-09-30T12:23:57;3.85;;;1.17;;
25439;SDS011;13365;52.208;5.488;2023-09-30T12:26:22;5.93;;;1.30;;
25439;SDS011;13365;52.208;5.488;2023-09-30T12:28:49;5.18;;;1.45;;
25439;SDS011;13365;52.208;5.488;2023-09-30T12:31:14;2.88;;;1.00;;
25439;SDS011;13365;52.208;5.488;2023-09-30T12:33:40;6.53;;;1.00;;
25439;SDS011;13365;52.208;5.488;2023-09-30T12:36:06;3.70;;;1.10;;
25439;SDS011;13365;52.208;5.488;2023-09-30T12:38:32;4.80;;;1.42;;
25439;SDS011;13365;52.208;5.488;2023-09-30T12:40:58;4.15;;;1.20;;
25439;SDS011;13365;52.208;5.488;2023-09-30T12:43:23;5.32;;;1.20;;
25439;SDS011;13365;52.208;5.488;2023-09-30T12:45:50;13.30;;;2.00;;
25439;SDS011;13365;52.208;5.488;2023-09-30T12:48:15;2.22;;;0.88;;
25439;SDS011;13365;52.208;5.488;2023-09-30T12:50:42;3.28;;;1.05;;
25439;SDS011;13365;52.208;5.488;2023-09-30T12:53:08;7.60;;;1.13;;
25439;SDS011;13365;52.208;5.488;2023-09-30T12:55:35;3.05;;;1.38;;
25439;SDS011;13365;52.208;5.488;2023-09-30T12:58:00;4.20;;;1.30;;
25439;SDS011;13365;52.208;5.488;2023-09-30T13:00:26;5.25;;;1.05;;
25439;SDS011;13365;52.208;5.488;2023-09-30T13:02:52;4.00;;;1.30;;
25439;SDS011;13365;52.208;5.488;2023-09-30T13:05:18;3.55;;;1.13;;
25439;SDS011;13365;52.208;5.488;2023-09-30T13:07:43;5.35;;;1.05;;
25439;SDS011;13365;52.208;5.488;2023-09-30T13:10:09;5.47;;;1.40;;
25439;SDS011;13365;52.208;5.488;2023-09-30T13:12:35;3.28;;;1.20;;
25439;SDS011;13365;52.208;5.488;2023-09-30T13:15:01;4.97;;;1.00;;
25439;SDS011;13365;52.208;5.488;2023-09-30T13:17:27;4.28;;;1.05;;
25439;SDS011;13365;52.208;5.488;2023-09-30T13:19:53;7.45;;;1.23;;
25439;SDS011;13365;52.208;5.488;2023-09-30T13:22:20;5.28;;;1.20;;
25439;SDS011;13365;52.208;5.488;2023-09-30T13:24:46;4.13;;;0.90;;
25439;SDS011;13365;52.208;5.488;2023-09-30T13:27:12;2.15;;;0.98;;
25439;SDS011;13365;52.208;5.488;2023-09-30T13:29:40;6.82;;;1.17;;
25439;SDS011;13365;52.208;5.488;2023-09-30T13:32:06;4.53;;;1.52;;
25439;SDS011;13365;52.208;5.488;2023-09-30T13:34:33;10.45;;;1.65;;
25439;SDS011;13365;52.208;5.488;2023-09-30T13:36:59;4.30;;;1.38;;
25439;SDS011;13365;52.208;5.488;2023-09-30T13:39:24;4.15;;;1.58;;
25439;SDS011;13365;52.208;5.488;2023-09-30T13:41:50;5.57;;;1.63;;
25439;SDS011;13365;52.208;5.488;2023-09-30T13:44:16;3.65;;;1.88;;
25439;SDS011;13365;52.208;5.488;2023-09-30T13:46:43;6.15;;;1.70;;
25439;SDS011;13365;52.208;5.488;2023-09-30T13:49:09;13.13;;;2.13;;
25439;SDS011;13365;52.208;5.488;2023-09-30T13:51:34;5.80;;;1.67;;
25439;SDS011;13365;52.208;5.488;2023-09-30T13:54:00;6.05;;;1.50;;
25439;SDS011;13365;52.208;5.488;2023-09-30T13:56:26;4.15;;;1.27;;
25439;SDS011;13365;52.208;5.488;2023-09-30T13:58:52;5.20;;;1.55;;
25439;SDS011;13365;52.208;5.488;2023-09-30T14:01:18;6.72;;;1.48;;
25439;SDS011;13365;52.208;5.488;2023-09-30T14:03:45;7.78;;;1.70;;
25439;SDS011;13365;52.208;5.488;2023-09-30T14:06:12;3.50;;;1.15;;
25439;SDS011;13365;52.208;5.488;2023-09-30T14:08:41;4.10;;;1.30;;
25439;SDS011;13365;52.208;5.488;2023-09-30T14:11:09;4.80;;;1.80;;
25439;SDS011;13365;52.208;5.488;2023-09-30T14:13:37;6.38;;;1.33;;
25439;SDS011;13365;52.208;5.488;2023-09-30T14:16:04;5.78;;;1.77;;
25439;SDS011;13365;52.208;5.488;2023-09-30T14:18:30;4.13;;;1.30;;
25439;SDS011;13365;52.208;5.488;2023-09-30T14:20:55;3.25;;;1.30;;
25439;SDS011;13365;52.208;5.488;2023-09-30T14:23:21;6.03;;;1.67;;
25439;SDS011;13365;52.208;5.488;2023-09-30T14:25:48;5.25;;;1.50;;
25439;SDS011;13365;52.208;5.488;2023-09-30T14:28:14;7.57;;;1.70;;
25439;SDS011;13365;52.208;5.488;2023-09-30T14:30:39;5.78;;;1.42;;
25439;SDS011;13365;52.208;5.488;2023-09-30T14:33:05;6.57;;;1.67;;
25439;SDS011;13365;52.208;5.488;2023-09-30T14:35:32;3.08;;;1.42;;
25439;SDS011;13365;52.208;5.488;2023-09-30T14:37:59;3.75;;;1.42;;
25439;SDS011;13365;52.208;5.488;2023-09-30T14:40:26;8.80;;;1.52;;
25439;SDS011;13365;52.208;5.488;2023-09-30T14:42:52;5.22;;;1.55;;
25439;SDS011;13365;52.208;5.488;2023-09-30T14:45:17;2.92;;;1.48;;
25439;SDS011;13365;52.208;5.488;2023-09-30T14:47:43;8.07;;;1.40;;
25439;SDS011;13365;52.208;5.488;2023-09-30T14:50:09;5.95;;;1.83;;
25439;SDS011;13365;52.208;5.488;2023-09-30T14:52:34;5.57;;;1.88;;
25439;SDS011;13365;52.208;5.488;2023-09-30T14:55:00;8.63;;;2.38;;
25439;SDS011;13365;52.208;5.488;2023-09-30T14:57:25;5.43;;;1.67;;
25439;SDS011;13365;52.208;5.488;2023-09-30T14:59:51;5.82;;;1.77;;
25439;SDS011;13365;52.208;5.488;2023-09-30T15:02:16;4.68;;;1.55;;
25439;SDS011;13365;52.208;5.488;2023-09-30T15:04:42;7.43;;;1.80;;
25439;SDS011;13365;52.208;5.488;2023-09-30T15:07:08;9.50;;;2.40;;